sensor_id;sensor_type;location;lat;lon;timestamp;P1;durP1;ratioP1;P2;durP2;ratioP2
77278;SDS011;66332;50.436;15.378;2023-04-24T04:01:53;13.32;;;8.05;;
77278;SDS011;66332;50.436;15.378;2023-04-24T04:06:34;15.38;;;7.57;;
77278;SDS011;66332;50.436;15.378;2023-04-24T04:11:16;16.02;;;7.80;;
77278;SDS011;66332;50.436;15.378;2023-04-24T04:15:57;14.65;;;8.18;;
77278;SDS011;66332;50.436;15.378;2023-04-24T04:20:38;15.43;;;8.57;;
77278;SDS011;66332;50.436;15.378;2023-04-24T04:25:19;14.70;;;7.97;;
77278;SDS011;66332;50.436;15.378;2023-04-24T04:30:00;16.85;;;9.63;;
77278;SDS011;66332;50.436;15.378;2023-04-24T04:34:44;17.85;;;9.13;;
77278;SDS011;66332;50.436;15.378;2023-04-24T04:39:25;15.57;;;8.60;;
77278;SDS011;66332;50.436;15.378;2023-04-24T04:44:08;16.40;;;8.98;;
77278;SDS011;66332;50.436;15.378;2023-04-24T04:48:50;16.70;;;9.18;;
77278;SDS011;66332;50.436;15.378;2023-04-24T04:53:31;21.08;;;11.00;;
77278;SDS011;66332;50.436;15.378;2023-04-24T04:58:12;19.30;;;10.32;;
77278;SDS011;66332;50.436;15.378;2023-04-24T05:02:52;18.77;;;10.00;;
77278;SDS011;66332;50.436;15.378;2023-04-24T05:07:33;22.60;;;10.35;;
77278;SDS011;66332;50.436;15.378;2023-04-24T05:12:14;18.40;;;10.05;;
77278;SDS011;66332;50.436;15.378;2023-04-24T05:16:55;19.05;;;10.95;;
77278;SDS011;66332;50.436;15.378;2023-04-24T05:21:36;15.95;;;9.90;;
77278;SDS011;66332;50.436;15.378;2023-04-24T05:26:17;16.63;;;9.32;;
77278;SDS011;66332;50.436;15.378;2023-04-24T05:30:58;17.75;;;9.95;;
77278;SDS011;66332;50.436;15.378;2023-04-24T05:35:40;16.58;;;9.38;;
77278;SDS011;66332;50.436;15.378;2023-04-24T05:40:26;16.65;;;9.82;;
77278;SDS011;66332;50.436;15.378;2023-04-24T05:45:07;16.73;;;10.18;;
77278;SDS011;66332;50.436;15.378;2023-04-24T05:49:48;15.90;;;10.02;;
77278;SDS011;66332;50.436;15.378;2023-04-24T05:54:29;15.35;;;9.52;;
77278;SDS011;66332;50.436;15.378;2023-04-24T05:59:10;16.55;;;9.70;;
77278;SDS011;66332;50.436;15.378;2023-04-24T06:03:50;17.27;;;9.52;;
77278;SDS011;66332;50.436;15.378;2023-04-24T06:08:31;16.13;;;9.45;;
77278;SDS011;66332;50.436;15.378;2023-04-24T06:13:13;16.27;;;9.52;;
77278;SDS011;66332;50.436;15.378;2023-04-24T06:17:53;17.65;;;9.88;;
77278;SDS011;66332;50.436;15.378;2023-04-24T06:22:34;17.23;;;10.18;;
77278;SDS011;66332;50.436;15.378;2023-04-24T06:31:56;14.95;;;8.45;;
77278;SDS011;66332;50.436;15.378;2023-04-24T06:36:37;14.85;;;8.98;;
77278;SDS011;66332;50.436;15.378;2023-04-24T06:41:18;13.98;;;7.63;;
77278;SDS011;66332;50.436;15.378;2023-04-24T06:45:59;15.40;;;8.60;;
77278;SDS011;66332;50.436;15.378;2023-04-24T06:50:40;13.80;;;7.63;;
77278;SDS011;66332;50.436;15.378;2023-04-24T06:55:21;14.20;;;7.75;;
77278;SDS011;66332;50.436;15.378;2023-04-24T07:00:03;14.13;;;7.18;;
77278;SDS011;66332;50.436;15.378;2023-04-24T07:04:45;11.90;;;5.85;;
77278;SDS011;66332;50.436;15.378;2023-04-24T07:09:27;10.55;;;5.53;;
77278;SDS011;66332;50.436;15.378;2023-04-24T07:14:07;11.07;;;5.10;;
77278;SDS011;66332;50.436;15.378;2023-04-24T07:18:49;8.82;;;5.10;;
77278;SDS011;66332;50.436;15.378;2023-04-24T07:23:30;9.32;;;4.40;;
77278;SDS011;66332;50.436;15.378;2023-04-24T07:28:11;9.90;;;4.40;;
77278;SDS011;66332;50.436;15.378;2023-04-24T07:32:55;10.32;;;4.30;;
77278;SDS011;66332;50.436;15.378;2023-04-24T07:37:36;10.18;;;5.00;;
77278;SDS011;66332;50.436;15.378;2023-04-24T07:42:17;9.93;;;4.80;;
77278;SDS011;66332;50.436;15.378;2023-04-24T07:46:58;10.23;;;4.07;;
77278;SDS011;66332;50.436;15.378;2023-04-24T07:51:39;10.63;;;5.88;;
77278;SDS011;66332;50.436;15.378;2023-04-24T07:56:20;12.18;;;4.78;;
77278;SDS011;66332;50.436;15.378;2023-04-24T08:05:42;8.43;;;4.15;;
77278;SDS011;66332;50.436;15.378;2023-04-24T08:10:24;9.05;;;3.65;;
77278;SDS011;66332;50.436;15.378;2023-04-24T08:15:06;8.77;;;4.13;;
77278;SDS011;66332;50.436;15.378;2023-04-24T08:19:47;8.98;;;4.05;;
77278;SDS011;66332;50.436;15.378;2023-04-24T08:24:28;9.55;;;4.70;;
77278;SDS011;66332;50.436;15.378;2023-04-24T08:29:09;7.22;;;3.70;;
77278;SDS011;66332;50.436;15.378;2023-04-24T08:33:51;9.07;;;3.90;;
77278;SDS011;66332;50.436;15.378;2023-04-24T08:38:35;9.05;;;3.70;;
77278;SDS011;66332;50.436;15.378;2023-04-24T08:43:16;8.23;;;3.40;;
77278;SDS011;66332;50.436;15.378;2023-04-24T08:47:57;8.38;;;3.70;;
77278;SDS011;66332;50.436;15.378;2023-04-24T08:52:40;7.95;;;4.03;;
77278;SDS011;66332;50.436;15.378;2023-04-24T08:57:22;8.55;;;4.15;;
77278;SDS011;66332;50.436;15.378;2023-04-24T09:02:05;8.32;;;4.40;;
77278;SDS011;66332;50.436;15.378;2023-04-24T09:06:51;9.15;;;4.93;;
77278;SDS011;66332;50.436;15.378;2023-04-24T09:11:35;10.98;;;5.25;;
77278;SDS011;66332;50.436;15.378;2023-04-24T09:16:17;9.90;;;5.47;;
77278;SDS011;66332;50.436;15.378;2023-04-24T09:25:49;10.98;;;6.65;;
77278;SDS011;66332;50.436;15.378;2023-04-24T09:30:35;10.63;;;5.75;;
77278;SDS011;66332;50.436;15.378;2023-04-24T09:35:16;10.90;;;6.10;;
77278;SDS011;66332;50.436;15.378;2023-04-24T09:45:08;10.93;;;5.45;;
77278;SDS011;66332;50.436;15.378;2023-04-24T09:49:50;9.68;;;5.18;;
77278;SDS011;66332;50.436;15.378;2023-04-24T09:54:39;10.40;;;5.72;;
77278;SDS011;66332;50.436;15.378;2023-04-24T09:59:20;10.10;;;6.13;;
77278;SDS011;66332;50.436;15.378;2023-04-24T10:04:01;8.60;;;4.90;;
77278;SDS011;66332;50.436;15.378;2023-04-24T10:13:23;7.78;;;4.50;;
77278;SDS011;66332;50.436;15.378;2023-04-24T10:22:47;8.25;;;4.72;;
77278;SDS011;66332;50.436;15.378;2023-04-24T10:27:31;9.13;;;5.03;;
77278;SDS011;66332;50.436;15.378;2023-04-24T10:32:12;8.45;;;5.15;;
77278;SDS011;66332;50.436;15.378;2023-04-24T10:41:36;8.07;;;4.93;;
77278;SDS011;66332;50.436;15.378;2023-04-24T10:46:21;8.18;;;4.40;;
77278;SDS011;66332;50.436;15.378;2023-04-24T10:51:02;9.50;;;4.38;;
77278;SDS011;66332;50.436;15.378;2023-04-24T10:55:44;7.65;;;3.38;;
77278;SDS011;66332;50.436;15.378;2023-04-24T11:00:27;8.82;;;3.70;;
77278;SDS011;66332;50.436;15.378;2023-04-24T11:05:08;7.68;;;3.60;;
77278;SDS011;66332;50.436;15.378;2023-04-24T11:09:49;7.32;;;3.58;;
77278;SDS011;66332;50.436;15.378;2023-04-24T11:19:39;7.45;;;2.83;;
77278;SDS011;66332;50.436;15.378;2023-04-24T11:25:06;6.30;;;3.03;;
77278;SDS011;66332;50.436;15.378;2023-04-24T11:29:46;6.75;;;3.22;;
77278;SDS011;66332;50.436;15.378;2023-04-24T11:34:31;6.53;;;2.50;;
77278;SDS011;66332;50.436;15.378;2023-04-24T11:39:13;6.00;;;2.25;;
77278;SDS011;66332;50.436;15.378;2023-04-24T11:43:55;5.25;;;1.77;;
77278;SDS011;66332;50.436;15.378;2023-04-24T11:48:36;4.85;;;1.75;;
77278;SDS011;66332;50.436;15.378;2023-04-24T11:53:20;5.35;;;2.30;;
77278;SDS011;66332;50.436;15.378;2023-04-24T11:58:02;5.60;;;2.13;;
77278;SDS011;66332;50.436;15.378;2023-04-24T12:02:43;5.50;;;2.20;;
77278;SDS011;66332;50.436;15.378;2023-04-24T12:07:24;6.03;;;2.72;;
77278;SDS011;66332;50.436;15.378;2023-04-24T12:12:05;8.13;;;3.13;;
77278;SDS011;66332;50.436;15.378;2023-04-24T12:16:47;7.78;;;2.63;;
77278;SDS011;66332;50.436;15.378;2023-04-24T12:21:29;6.00;;;2.60;;
77278;SDS011;66332;50.436;15.378;2023-04-24T12:26:11;5.63;;;2.22;;
77278;SDS011;66332;50.436;15.378;2023-04-24T12:30:52;5.72;;;2.30;;
77278;SDS011;66332;50.436;15.378;2023-04-24T12:35:33;5.55;;;2.08;;
77278;SDS011;66332;50.436;15.378;2023-04-24T12:40:16;5.45;;;1.83;;
77278;SDS011;66332;50.436;15.378;2023-04-24T12:45:04;6.53;;;2.15;;
77278;SDS011;66332;50.436;15.378;2023-04-24T12:49:46;5.43;;;1.98;;
77278;SDS011;66332;50.436;15.378;2023-04-24T12:54:31;4.85;;;1.75;;
77278;SDS011;66332;50.436;15.378;2023-04-24T12:59:13;7.07;;;2.60;;
77278;SDS011;66332;50.436;15.378;2023-04-24T13:03:54;5.35;;;1.60;;
77278;SDS011;66332;50.436;15.378;2023-04-24T13:08:34;5.35;;;1.90;;
77278;SDS011;66332;50.436;15.378;2023-04-24T13:13:15;5.28;;;1.70;;
77278;SDS011;66332;50.436;15.378;2023-04-24T13:17:56;5.13;;;1.70;;
77278;SDS011;66332;50.436;15.378;2023-04-24T13:22:37;5.50;;;1.65;;
77278;SDS011;66332;50.436;15.378;2023-04-24T13:27:18;4.85;;;1.70;;
77278;SDS011;66332;50.436;15.378;2023-04-24T13:31:59;6.07;;;1.63;;
77278;SDS011;66332;50.436;15.378;2023-04-24T13:36:40;5.40;;;1.88;;
77278;SDS011;66332;50.436;15.378;2023-04-24T13:41:21;5.80;;;1.80;;
77278;SDS011;66332;50.436;15.378;2023-04-24T13:46:02;5.82;;;1.80;;
77278;SDS011;66332;50.436;15.378;2023-04-24T13:50:43;5.47;;;2.05;;
77278;SDS011;66332;50.436;15.378;2023-04-24T13:55:24;5.20;;;1.80;;
77278;SDS011;66332;50.436;15.378;2023-04-24T14:00:06;6.68;;;1.98;;
77278;SDS011;66332;50.436;15.378;2023-04-24T14:04:50;5.40;;;2.10;;
77278;SDS011;66332;50.436;15.378;2023-04-24T14:09:31;5.90;;;2.15;;
77278;SDS011;66332;50.436;15.378;2023-04-24T14:14:13;5.85;;;2.38;;
77278;SDS011;66332;50.436;15.378;2023-04-24T14:18:54;5.38;;;1.95;;
77278;SDS011;66332;50.436;15.378;2023-04-24T14:23:35;6.22;;;2.20;;
77278;SDS011;66332;50.436;15.378;2023-04-24T14:28:16;5.82;;;2.20;;
77278;SDS011;66332;50.436;15.378;2023-04-24T14:32:58;6.00;;;2.33;;
77278;SDS011;66332;50.436;15.378;2023-04-24T14:37:39;3.67;;;1.50;;
77278;SDS011;66332;50.436;15.378;2023-04-24T14:42:21;6.18;;;1.88;;
77278;SDS011;66332;50.436;15.378;2023-04-24T14:47:02;4.70;;;1.50;;
77278;SDS011;66332;50.436;15.378;2023-04-24T14:51:43;3.90;;;1.20;;
77278;SDS011;66332;50.436;15.378;2023-04-24T15:01:05;6.47;;;2.40;;
77278;SDS011;66332;50.436;15.378;2023-04-24T15:05:46;6.03;;;2.35;;
77278;SDS011;66332;50.436;15.378;2023-04-24T15:15:09;6.13;;;2.10;;
77278;SDS011;66332;50.436;15.378;2023-04-24T15:24:31;6.65;;;2.88;;
77278;SDS011;66332;50.436;15.378;2023-04-24T15:29:12;6.65;;;2.17;;
77278;SDS011;66332;50.436;15.378;2023-04-24T15:33:53;8.65;;;4.55;;
77278;SDS011;66332;50.436;15.378;2023-04-24T15:38:34;6.57;;;2.42;;
77278;SDS011;66332;50.436;15.378;2023-04-24T15:43:15;6.53;;;1.80;;
77278;SDS011;66332;50.436;15.378;2023-04-24T15:52:37;27.00;;;12.75;;
77278;SDS011;66332;50.436;15.378;2023-04-24T15:57:18;13.15;;;5.25;;
77278;SDS011;66332;50.436;15.378;2023-04-24T16:01:59;13.52;;;5.18;;
77278;SDS011;66332;50.436;15.378;2023-04-24T16:06:40;6.57;;;2.90;;
77278;SDS011;66332;50.436;15.378;2023-04-24T16:11:21;5.57;;;2.45;;
77278;SDS011;66332;50.436;15.378;2023-04-24T16:16:02;5.38;;;2.15;;
77278;SDS011;66332;50.436;15.378;2023-04-24T16:20:44;9.05;;;4.05;;
77278;SDS011;66332;50.436;15.378;2023-04-24T16:25:26;11.20;;;6.43;;
77278;SDS011;66332;50.436;15.378;2023-04-24T16:30:07;5.05;;;2.22;;
77278;SDS011;66332;50.436;15.378;2023-04-24T16:34:49;6.40;;;2.75;;
77278;SDS011;66332;50.436;15.378;2023-04-24T16:44:10;9.32;;;5.15;;
77278;SDS011;66332;50.436;15.378;2023-04-24T16:48:53;9.07;;;4.03;;
77278;SDS011;66332;50.436;15.378;2023-04-24T16:53:34;8.50;;;4.50;;
77278;SDS011;66332;50.436;15.378;2023-04-24T16:58:15;9.07;;;5.05;;
77278;SDS011;66332;50.436;15.378;2023-04-24T17:07:37;14.65;;;5.80;;
77278;SDS011;66332;50.436;15.378;2023-04-24T17:16:59;10.77;;;6.07;;
77278;SDS011;66332;50.436;15.378;2023-04-24T17:21:40;7.25;;;3.30;;
77278;SDS011;66332;50.436;15.378;2023-04-24T17:31:01;5.75;;;1.67;;
77278;SDS011;66332;50.436;15.378;2023-04-24T17:35:47;4.97;;;1.60;;
77278;SDS011;66332;50.436;15.378;2023-04-24T17:40:30;4.93;;;1.70;;
77278;SDS011;66332;50.436;15.378;2023-04-24T17:45:12;4.90;;;1.77;;
77278;SDS011;66332;50.436;15.378;2023-04-24T17:49:58;4.95;;;1.35;;
77278;SDS011;66332;50.436;15.378;2023-04-24T17:54:39;7.25;;;1.90;;
77278;SDS011;66332;50.436;15.378;2023-04-24T17:59:20;5.78;;;2.05;;
77278;SDS011;66332;50.436;15.378;2023-04-24T18:04:07;5.30;;;1.95;;
77278;SDS011;66332;50.436;15.378;2023-04-24T18:08:49;6.20;;;2.55;;
77278;SDS011;66332;50.436;15.378;2023-04-24T18:18:11;8.30;;;3.85;;
77278;SDS011;66332;50.436;15.378;2023-04-24T18:22:54;6.75;;;3.05;;
77278;SDS011;66332;50.436;15.378;2023-04-24T18:27:35;6.82;;;2.72;;
77278;SDS011;66332;50.436;15.378;2023-04-24T18:32:16;6.00;;;2.22;;
77278;SDS011;66332;50.436;15.378;2023-04-24T18:41:38;6.60;;;2.80;;
77278;SDS011;66332;50.436;15.378;2023-04-24T18:46:19;6.80;;;2.65;;
77278;SDS011;66332;50.436;15.378;2023-04-24T18:51:00;6.53;;;2.63;;
77278;SDS011;66332;50.436;15.378;2023-04-24T19:00:22;5.88;;;2.63;;
77278;SDS011;66332;50.436;15.378;2023-04-24T19:05:03;6.22;;;2.55;;
77278;SDS011;66332;50.436;15.378;2023-04-24T19:09:44;7.22;;;2.40;;
77278;SDS011;66332;50.436;15.378;2023-04-24T19:14:25;6.55;;;2.42;;
77278;SDS011;66332;50.436;15.378;2023-04-24T19:19:06;6.95;;;2.65;;
77278;SDS011;66332;50.436;15.378;2023-04-24T19:23:48;6.53;;;2.30;;
77278;SDS011;66332;50.436;15.378;2023-04-24T19:28:32;6.57;;;2.33;;
77278;SDS011;66332;50.436;15.378;2023-04-24T19:33:13;6.13;;;2.40;;
77278;SDS011;66332;50.436;15.378;2023-04-24T19:37:54;5.53;;;2.45;;
77278;SDS011;66332;50.436;15.378;2023-04-24T19:42:35;6.57;;;2.88;;
77278;SDS011;66332;50.436;15.378;2023-04-24T19:47:16;6.53;;;2.75;;
77278;SDS011;66332;50.436;15.378;2023-04-24T19:51:57;8.35;;;2.65;;
77278;SDS011;66332;50.436;15.378;2023-04-24T19:56:38;6.85;;;3.03;;
77278;SDS011;66332;50.436;15.378;2023-04-24T20:01:19;6.75;;;2.60;;
77278;SDS011;66332;50.436;15.378;2023-04-24T20:06:00;6.30;;;2.67;;
77278;SDS011;66332;50.436;15.378;2023-04-24T20:10:41;6.88;;;2.53;;
77278;SDS011;66332;50.436;15.378;2023-04-24T20:15:23;6.15;;;2.42;;
77278;SDS011;66332;50.436;15.378;2023-04-24T20:20:04;7.18;;;2.53;;
77278;SDS011;66332;50.436;15.378;2023-04-24T20:24:45;6.47;;;2.55;;
77278;SDS011;66332;50.436;15.378;2023-04-24T20:29:27;5.95;;;2.45;;
77278;SDS011;66332;50.436;15.378;2023-04-24T20:34:08;7.43;;;2.92;;
77278;SDS011;66332;50.436;15.378;2023-04-24T20:38:48;10.05;;;3.08;;
77278;SDS011;66332;50.436;15.378;2023-04-24T20:43:31;7.25;;;2.92;;
77278;SDS011;66332;50.436;15.378;2023-04-24T20:48:12;7.50;;;3.17;;
77278;SDS011;66332;50.436;15.378;2023-04-24T20:52:52;8.18;;;3.20;;
77278;SDS011;66332;50.436;15.378;2023-04-24T20:57:33;7.50;;;3.05;;
77278;SDS011;66332;50.436;15.378;2023-04-24T21:06:55;7.60;;;3.50;;
77278;SDS011;66332;50.436;15.378;2023-04-24T21:11:36;7.43;;;3.05;;
77278;SDS011;66332;50.436;15.378;2023-04-24T21:16:17;7.05;;;3.28;;
77278;SDS011;66332;50.436;15.378;2023-04-24T21:20:57;7.00;;;3.17;;
77278;SDS011;66332;50.436;15.378;2023-04-24T21:25:38;6.70;;;3.15;;
77278;SDS011;66332;50.436;15.378;2023-04-24T21:30:20;8.43;;;3.17;;
77278;SDS011;66332;50.436;15.378;2023-04-24T21:35:01;8.60;;;3.40;;
77278;SDS011;66332;50.436;15.378;2023-04-24T21:39:42;8.82;;;3.30;;
77278;SDS011;66332;50.436;15.378;2023-04-24T21:44:23;7.68;;;3.20;;
77278;SDS011;66332;50.436;15.378;2023-04-24T21:49:04;7.15;;;2.95;;
77278;SDS011;66332;50.436;15.378;2023-04-24T21:53:45;7.60;;;3.38;;
77278;SDS011;66332;50.436;15.378;2023-04-24T21:58:26;6.10;;;2.78;;
77278;SDS011;66332;50.436;15.378;2023-04-24T22:03:07;6.05;;;2.50;;
77278;SDS011;66332;50.436;15.378;2023-04-24T22:07:48;7.68;;;2.88;;
77278;SDS011;66332;50.436;15.378;2023-04-24T22:12:30;6.45;;;2.38;;
77278;SDS011;66332;50.436;15.378;2023-04-24T22:17:11;5.72;;;2.20;;
77278;SDS011;66332;50.436;15.378;2023-04-24T22:21:52;8.00;;;2.22;;
77278;SDS011;66332;50.436;15.378;2023-04-24T22:26:33;6.75;;;2.22;;
77278;SDS011;66332;50.436;15.378;2023-04-24T22:31:14;5.18;;;1.85;;
77278;SDS011;66332;50.436;15.378;2023-04-24T22:35:55;6.63;;;2.20;;
77278;SDS011;66332;50.436;15.378;2023-04-24T22:40:36;5.22;;;1.98;;
77278;SDS011;66332;50.436;15.378;2023-04-24T22:45:17;4.78;;;1.83;;
77278;SDS011;66332;50.436;15.378;2023-04-24T22:49:58;4.60;;;1.50;;
77278;SDS011;66332;50.436;15.378;2023-04-24T22:54:39;5.85;;;1.70;;
77278;SDS011;66332;50.436;15.378;2023-04-24T22:59:20;4.85;;;1.63;;
77278;SDS011;66332;50.436;15.378;2023-04-24T23:04:02;5.30;;;1.83;;
77278;SDS011;66332;50.436;15.378;2023-04-24T23:08:44;5.10;;;1.70;;
77278;SDS011;66332;50.436;15.378;2023-04-24T23:13:25;5.05;;;1.83;;
77278;SDS011;66332;50.436;15.378;2023-04-24T23:18:06;5.70;;;2.03;;
77278;SDS011;66332;50.436;15.378;2023-04-24T23:22:47;5.07;;;1.88;;
77278;SDS011;66332;50.436;15.378;2023-04-24T23:27:28;5.22;;;1.63;;
77278;SDS011;66332;50.436;15.378;2023-04-24T23:32:09;5.88;;;2.35;;
77278;SDS011;66332;50.436;15.378;2023-04-24T23:36:49;4.90;;;1.90;;
77278;SDS011;66332;50.436;15.378;2023-04-24T23:41:31;5.07;;;1.95;;
77278;SDS011;66332;50.436;15.378;2023-04-24T23:46:12;5.65;;;1.90;;
77278;SDS011;66332;50.436;15.378;2023-04-24T23:50:53;5.03;;;1.92;;
77278;SDS011;66332;50.436;15.378;2023-04-24T23:55:34;5.20;;;2.13;;
